Observations for Trim Patrick St
| Time | AQI | Temp °C | Hum % | Pres Pa | CO μg/m³ | H₂S μg/m³ | NO μg/m³ | NO₂ μg/m³ | O₃ μg/m³ | SO₂ μg/m³ | PM1 μg/m³ | PM2.5 μg/m³ | PM10 μg/m³ |
|---|---|---|---|---|---|---|---|---|---|---|---|---|---|
| Monday 3 August 2026 | |||||||||||||
| 02:26 | 1 | 14.9 | 83 | 38,460 | 0.22 | 0.26 | 1.61 | 24.95 | 33.91 | 0 | 7.14 | 11.24 | 12.37 |
| 02:25 | 1 | 14.9 | 83 | 38,460 | 0.23 | 0.44 | 1.71 | 26.37 | 33.12 | 0 | 8 | 11.24 | 12.37 |
| 02:24 | 1 | 14.9 | 83 | 38,460 | 0.22 | 0 | 1.7 | 16.46 | 17.85 | 0 | 8 | 11.94 | 13.13 |
| 02:23 | 1 | 14.9 | 83 | 38,460 | 0.22 | 0.52 | 1.81 | 28.02 | 40.54 | 0 | 8 | 12.63 | 13.89 |
| 02:22 | 1 | 14.9 | 83 | 38,460 | 0.21 | 0.26 | 1.73 | 22.43 | 28.6 | 0 | 5.43 | 9.16 | 10.08 |
| 02:21 | 1 | 14.9 | 83 | 38,460 | 0.23 | 0.49 | 1.87 | 24.96 | 32.18 | 0 | 6.29 | 10.55 | 11.61 |
| 02:20 | 1 | 14.9 | 83 | 38,460 | 0.22 | 0 | 1.84 | 22.44 | 21.28 | 0 | 6.29 | 10.55 | 11.61 |
| 02:19 | 1 | 14.9 | 83 | 38,460 | 0.22 | 0.28 | 1.83 | 21.61 | 30.88 | 0 | 7.14 | 9.86 | 10.84 |
| 02:18 | 1 | 14.9 | 83 | 38,460 | 0.22 | 0.47 | 1.78 | 23.98 | 34.3 | 0 | 8 | 12.63 | 13.89 |
| 02:17 | 1 | 14.9 | 83 | 38,460 | 0.22 | 0.36 | 1.76 | 26.14 | 30.48 | 0 | 7.14 | 11.24 | 12.37 |
| 02:16 | 1 | 14.9 | 83 | 38,460 | 0.22 | 0 | 1.67 | 21.31 | 23.53 | 0 | 8 | 11.24 | 12.37 |
| 02:15 | 1 | 14.9 | 83 | 38,460 | 0.21 | 0.57 | 1.81 | 24.47 | 31.78 | 0 | 8.86 | 12.63 | 13.89 |
| 02:14 | 1 | 14.9 | 83 | 38,460 | 0.23 | 0.1 | 1.8 | 23.25 | 28.09 | 0 | 6.29 | 11.24 | 12.36 |
| 02:13 | 1 | 14.9 | 83 | 38,460 | 0.24 | 0 | 1.85 | 23.98 | 30.17 | 0 | 8 | 11.94 | 13.13 |
| 02:12 | 1 | 14.9 | 83 | 38,460 | 0.21 | 0 | 1.95 | 20.42 | 25.17 | 0 | 8 | 10.54 | 11.6 |
| 02:11 | 1 | 14.9 | 83 | 38,460 | 0.22 | 0.65 | 1.96 | 24.26 | 28.96 | 0 | 6.29 | 10.54 | 11.6 |
| 02:10 | 1 | 14.9 | 83 | 38,460 | 0.21 | 0.26 | 1.78 | 24.26 | 28.3 | 0 | 6.29 | 11.24 | 12.36 |
| 02:09 | 1 | 14.9 | 83 | 38,460 | 0.21 | 1.32 | 1.89 | 26.18 | 35.74 | 0 | 7.14 | 11.93 | 13.12 |
| 02:08 | 1 | 14.9 | 83 | 38,460 | 0.23 | 0.8 | 1.93 | 21.04 | 30.6 | 0 | 8 | 11.24 | 12.36 |
| 02:07 | 1 | 14.9 | 83 | 38,460 | 0.21 | 1.04 | 1.8 | 27.6 | 28.11 | 0 | 8 | 11.93 | 13.12 |